LXGBLPMA

Guest
Details From LXGB - Gibraltar
To LPMA - Madeira/Funchal - Cristiano Ronaldo
Flight Number -
Tags decoded
Created
Modified
Stats Distance 633 nm / 1,173 km
Max Altitude 0 ft / 0 m
Waypoints 7
Social Downloads 11
Likes 0
Share

Download

Looking for another format? Having issues loading an existing format? Contact us
Advertisement - Login to hide

Notes

Requested: LXGB TNG IBALU IBLIV ABTIR XEGEN LPMA

Route

LXGB TNG IBALU IBLIV ABTIR XEGEN LPMA

ID Type Via Altitude (ft/m) Position (lat/lon) Dist (leg/tot) Name
O LXGB APT - 0 / 0 36.15120 / -5.34985 - / 0 nm Gibraltar
TNG DME - 0 / 0 35.72890 / -5.89083 36 / 36 nm TANGER VOR-DME
IBALU FIX - 0 / 0 34.44440 / -8.78917 161 / 198 nm
IBLIV FIX - 0 / 0 33.17390 / -11.40610 151 / 349 nm
ABTIR FIX - 0 / 0 32.84890 / -12.80170 72 / 422 nm
XEGEN FIX - 0 / 0 32.31640 / -16.01610 165 / 588 nm
O LPMA APT - 0 / 0 32.69790 / -16.77440 44 / 633 nm Madeira/Funchal - Cristiano Ronaldo

Altitude Profile

Advertisement - Login to hide

Weather


0- 5 10 15 20 25 30 35+ Temperature / °C

Clouds and Precipitation
Forecast for 2020-07-06 06:00 UTC. Updated 3 hours ago

Ground ~20,000 ft ~40,000 ft Winds

LXGB

Details ICAO LXGB (GIB)
Name Gibraltar
Region Gibralter
Timezone Europe/Gibraltar (UTC+2.0)
Stats Elevation 15 ft / 5 m (AMSL)
Location 36.151200° -5.349850°
Runways 1
Magnetic Variation 0.832° W

METAR

LXGB 060550Z 28002KT CAVOK 20/16 Q1016

Decode

TAF

Not found

Departure Runways

ID Width Length Bearing (true/mag) Surface Threshold Overrun Markings Lighting
09 148 ft / 45 m 5,836 ft / 1,779 m 87.52° / 88.35° ASPHALT 476 ft / 145 m 0 ft / 0 m UK-PREC-APP EDGE THRESHOLD REIL-OMNI
27 148 ft / 45 m 5,836 ft / 1,779 m 267.53° / 268.37° ASPHALT 354 ft / 108 m 0 ft / 0 m UK-PREC-APP EDGE THRESHOLD REIL-OMNI

LPMA

Details ICAO LPMA (FNC)
Name Madeira/Funchal - Cristiano Ronaldo
Region Portugal
Timezone Atlantic/Madeira (UTC+1.0)
Stats Elevation 189 ft / 58 m (AMSL)
Location 32.697900° -16.774400°
Runways 1
Magnetic Variation 4.667° W

METAR

LPMA 060600Z 34003KT 270V050 9999 FEW016 20/16 Q1017

Decode

TAF

TAF LPMA 060500Z 0606/0706 01015KT 9999 SCT016 TEMPO 0606/0706 01018G30KT

Decode

Destination Runways

ID Width Length Bearing (true/mag) Surface Threshold Overrun Markings Lighting
05 148 ft / 45 m 9,133 ft / 2,784 m 44.60° / 49.26° ASPHALT 482 ft / 147 m 0 ft / 0 m PREC-APP CENTERLINE EDGE THRESHOLD TDZ REIL-OMNI
23 148 ft / 45 m 9,133 ft / 2,784 m 224.61° / 229.27° ASPHALT 482 ft / 147 m 0 ft / 0 m PREC-APP CENTERLINE EDGE THRESHOLD TDZ REIL-OMNI

Popular Alternatives